Time;durP1;ratioP1;P1;durP2;ratioP2;P2;SDS_P1;SDS_P2;PMS_P1;PMS_P2;Temp;Humidity;BMP_temperature;BMP_pressure;BME280_temperature;BME280_humidity;BME280_pressure;Samples;Min_cycle;Max_cycle;Signal;HPM_P1;HPM_P2
2024/01/14 00:00:00;;;;;;;7.05;0.60;;;;;;;;;;5085297;28;20062;-80
2024/01/14 00:02:26;;;;;;;6.53;0.70;;;;;;;;;;5102426;28;20047;-80
2024/01/14 00:04:52;;;;;;;9.60;1.20;;;;;;;;;;5120416;28;20047;-80
2024/01/14 00:07:18;;;;;;;5.28;0.50;;;;;;;;;;5101303;28;20040;-80
2024/01/14 00:09:44;;;;;;;8.23;0.77;;;;;;;;;;5098535;28;20048;-80
2024/01/14 00:12:10;;;;;;;8.25;0.50;;;;;;;;;;5117147;28;20374;-80
2024/01/14 00:14:36;;;;;;;11.10;0.63;;;;;;;;;;5099129;28;20126;-80
2024/01/14 00:17:02;;;;;;;5.65;0.60;;;;;;;;;;5082234;28;20047;-80
2024/01/14 00:19:28;;;;;;;9.88;1.23;;;;;;;;;;5082066;28;20062;-80
2024/01/14 00:21:54;;;;;;;7.18;0.50;;;;;;;;;;5098777;28;20133;-80
2024/01/14 00:24:20;;;;;;;7.43;0.82;;;;;;;;;;5116837;28;20051;-81
2024/01/14 00:26:46;;;;;;;9.55;0.90;;;;;;;;;;5081975;28;20047;-80
2024/01/14 00:29:12;;;;;;;10.85;1.15;;;;;;;;;;5098494;28;20047;-80
2024/01/14 00:31:38;;;;;;;8.45;0.70;;;;;;;;;;5116715;28;20073;-80
2024/01/14 00:34:04;;;;;;;10.23;0.95;;;;;;;;;;5116350;28;20483;-81
2024/01/14 00:36:30;;;;;;;8.77;0.98;;;;;;;;;;5098944;28;20047;-80
2024/01/14 00:38:57;;;;;;;13.23;1.25;;;;;;;;;;5116099;28;20543;-80
2024/01/14 00:41:23;;;;;;;6.82;1.05;;;;;;;;;;5116284;28;20047;-80
2024/01/14 00:43:49;;;;;;;7.05;0.80;;;;;;;;;;5098526;28;20128;-80
2024/01/14 00:46:15;;;;;;;12.85;0.85;;;;;;;;;;5098700;28;20058;-80
2024/01/14 00:48:41;;;;;;;8.50;0.63;;;;;;;;;;5098412;28;20074;-80
2024/01/14 00:51:07;;;;;;;13.57;0.95;;;;;;;;;;5098415;28;20446;-80
2024/01/14 00:53:33;;;;;;;13.18;2.00;;;;;;;;;;5116202;28;20048;-80
2024/01/14 00:55:59;;;;;;;7.07;0.70;;;;;;;;;;5116285;28;20044;-80
2024/01/14 00:58:25;;;;;;;6.68;0.60;;;;;;;;;;5081292;28;20051;-80
2024/01/14 01:00:51;;;;;;;8.90;0.80;;;;;;;;;;5098130;28;20494;-80
2024/01/14 01:03:18;;;;;;;9.57;0.50;;;;;;;;;;5115466;28;20084;-80
2024/01/14 01:05:44;;;;;;;11.35;0.70;;;;;;;;;;5097829;28;20127;-80
2024/01/14 01:08:10;;;;;;;9.65;0.75;;;;;;;;;;5080672;28;20036;-80
2024/01/14 01:10:36;;;;;;;9.82;0.70;;;;;;;;;;5115921;28;20177;-80
2024/01/14 01:13:02;;;;;;;9.18;0.52;;;;;;;;;;5097435;28;20480;-80
2024/01/14 01:15:28;;;;;;;9.10;0.50;;;;;;;;;;5116445;28;20047;-80
2024/01/14 01:17:54;;;;;;;12.13;1.25;;;;;;;;;;5115787;28;20047;-80
2024/01/14 01:20:20;;;;;;;5.72;0.60;;;;;;;;;;5097503;28;20043;-80
2024/01/14 01:22:46;;;;;;;4.82;0.32;;;;;;;;;;5115209;28;20073;-80
2024/01/14 01:25:13;;;;;;;6.90;0.52;;;;;;;;;;5081516;28;20044;-80
2024/01/14 01:27:39;;;;;;;9.75;0.82;;;;;;;;;;5097731;28;20043;-80
2024/01/14 01:30:05;;;;;;;7.55;0.35;;;;;;;;;;5097653;28;20057;-80
2024/01/14 01:32:31;;;;;;;9.40;0.88;;;;;;;;;;5097321;28;20449;-80
2024/01/14 01:34:57;;;;;;;8.23;0.60;;;;;;;;;;5097377;28;20046;-80
2024/01/14 01:37:23;;;;;;;7.97;0.55;;;;;;;;;;5080323;28;20051;-80
2024/01/14 01:39:50;;;;;;;7.63;0.80;;;;;;;;;;5097304;28;20097;-80
2024/01/14 01:42:16;;;;;;;7.20;0.30;;;;;;;;;;5080419;28;20450;-80
2024/01/14 01:44:42;;;;;;;5.65;0.50;;;;;;;;;;5097953;28;20387;-80
2024/01/14 01:47:09;;;;;;;4.80;0.38;;;;;;;;;;5080666;28;20075;-80
2024/01/14 01:49:35;;;;;;;5.13;0.65;;;;;;;;;;5097008;28;20044;-80
2024/01/14 01:52:04;;;;;;;11.48;0.47;;;;;;;;;;5115125;28;20138;-80
2024/01/14 01:54:30;;;;;;;9.27;0.43;;;;;;;;;;5097138;28;20063;-80
2024/01/14 01:56:57;;;;;;;6.85;0.80;;;;;;;;;;5097145;28;20085;-80
2024/01/14 01:59:24;;;;;;;10.65;0.60;;;;;;;;;;5114973;28;20055;-80
2024/01/14 02:01:50;;;;;;;12.57;1.63;;;;;;;;;;5097046;28;20051;-80
2024/01/14 02:04:17;;;;;;;5.07;0.60;;;;;;;;;;5125024;27;20043;-80
2024/01/14 02:06:43;;;;;;;4.40;0.30;;;;;;;;;;5135209;27;20382;-80
2024/01/14 02:09:09;;;;;;;10.85;0.55;;;;;;;;;;5116983;27;20055;-80
2024/01/14 02:11:36;;;;;;;13.52;0.70;;;;;;;;;;5100329;27;20434;-80
2024/01/14 02:14:02;;;;;;;8.52;1.08;;;;;;;;;;5117208;27;20043;-80
2024/01/14 02:16:28;;;;;;;8.50;0.52;;;;;;;;;;5117312;27;20043;-80
2024/01/14 02:18:54;;;;;;;7.78;0.65;;;;;;;;;;5116901;27;20043;-80
2024/01/14 02:21:23;;;;;;;11.93;0.93;;;;;;;;;;5135199;27;20134;-80
2024/01/14 02:23:51;;;;;;;14.90;0.50;;;;;;;;;;5116823;27;20387;-80
2024/01/14 02:26:17;;;;;;;15.70;0.95;;;;;;;;;;5116712;27;20081;-80
2024/01/14 02:28:44;;;;;;;8.75;0.50;;;;;;;;;;5135133;27;20559;-80
2024/01/14 02:31:10;;;;;;;7.40;0.43;;;;;;;;;;5116908;27;20090;-80
2024/01/14 02:33:36;;;;;;;10.25;0.63;;;;;;;;;;5134944;27;20049;-80
2024/01/14 02:36:02;;;;;;;8.45;0.40;;;;;;;;;;5134928;27;20055;-80
2024/01/14 02:38:28;;;;;;;9.40;0.90;;;;;;;;;;5116262;27;20050;-80
2024/01/14 02:40:54;;;;;;;13.80;1.08;;;;;;;;;;5116677;28;20092;-80
2024/01/14 02:43:20;;;;;;;13.38;0.65;;;;;;;;;;5134870;27;20039;-80
2024/01/14 02:45:46;;;;;;;9.30;0.73;;;;;;;;;;5116529;28;20046;-80
2024/01/14 02:48:12;;;;;;;5.88;0.77;;;;;;;;;;5116225;27;20483;-80
2024/01/14 02:50:38;;;;;;;11.23;0.60;;;;;;;;;;5134328;27;20039;-80
2024/01/14 02:53:05;;;;;;;9.60;0.70;;;;;;;;;;5099732;28;20092;-80
2024/01/14 02:55:31;;;;;;;13.18;1.00;;;;;;;;;;5116801;28;20138;-80
2024/01/14 02:57:57;;;;;;;17.23;0.60;;;;;;;;;;5116575;28;20047;-80
2024/01/14 03:00:23;;;;;;;8.90;0.47;;;;;;;;;;5116562;28;20057;-80
2024/01/14 03:02:49;;;;;;;12.57;0.77;;;;;;;;;;5116613;28;20047;-80
2024/01/14 03:05:15;;;;;;;10.27;0.55;;;;;;;;;;5134659;28;20130;-80
2024/01/14 03:07:42;;;;;;;6.82;0.50;;;;;;;;;;5134260;28;20039;-80
2024/01/14 03:10:08;;;;;;;12.77;0.98;;;;;;;;;;5134559;28;20130;-80
2024/01/14 03:12:34;;;;;;;10.00;1.13;;;;;;;;;;5116408;28;20039;-80
2024/01/14 03:15:00;;;;;;;11.15;0.57;;;;;;;;;;5134557;28;20039;-80
2024/01/14 03:17:26;;;;;;;17.55;0.65;;;;;;;;;;5116525;28;20047;-80
2024/01/14 03:19:52;;;;;;;9.05;0.80;;;;;;;;;;5116419;28;20082;-80
2024/01/14 03:22:18;;;;;;;11.80;1.00;;;;;;;;;;5117136;28;20443;-80
2024/01/14 03:24:44;;;;;;;7.05;0.80;;;;;;;;;;5116192;28;20510;-80
2024/01/14 03:27:10;;;;;;;7.97;0.30;;;;;;;;;;5116376;28;20085;-80
2024/01/14 03:29:37;;;;;;;9.20;1.13;;;;;;;;;;5116490;28;20040;-80
2024/01/14 03:32:03;;;;;;;9.88;0.95;;;;;;;;;;5134774;28;20507;-80
2024/01/14 03:34:29;;;;;;;11.75;0.65;;;;;;;;;;5116044;28;20379;-80
2024/01/14 03:36:55;;;;;;;8.70;0.88;;;;;;;;;;5116260;28;20398;-80
2024/01/14 03:39:21;;;;;;;7.82;0.50;;;;;;;;;;5115928;28;20167;-80
2024/01/14 03:41:47;;;;;;;8.57;0.43;;;;;;;;;;5134429;28;20054;-80
2024/01/14 03:44:14;;;;;;;12.25;0.75;;;;;;;;;;5135494;27;20057;-80
2024/01/14 03:46:40;;;;;;;6.72;0.65;;;;;;;;;;5137286;27;20222;-80
2024/01/14 03:49:06;;;;;;;8.27;1.08;;;;;;;;;;5137640;27;20499;-80
2024/01/14 03:51:32;;;;;;;10.90;0.45;;;;;;;;;;5085978;27;20124;-80
2024/01/14 03:53:58;;;;;;;9.98;0.50;;;;;;;;;;5137932;27;20092;-80
2024/01/14 03:56:24;;;;;;;7.70;0.45;;;;;;;;;;5120249;27;20039;-80
2024/01/14 03:58:50;;;;;;;13.55;0.80;;;;;;;;;;5137947;27;20051;-80
2024/01/14 04:01:17;;;;;;;8.55;0.82;;;;;;;;;;5119805;27;20047;-80
2024/01/14 04:03:44;;;;;;;10.52;0.40;;;;;;;;;;5119903;27;20529;-80
2024/01/14 04:06:10;;;;;;;11.35;0.77;;;;;;;;;;5119790;27;20047;-80
2024/01/14 04:08:36;;;;;;;8.77;0.50;;;;;;;;;;5137367;27;20054;-80
2024/01/14 04:11:02;;;;;;;7.22;0.50;;;;;;;;;;5119624;27;20039;-80
2024/01/14 04:13:28;;;;;;;8.93;0.63;;;;;;;;;;5137588;27;20042;-80
2024/01/14 04:15:57;;;;;;;10.20;0.65;;;;;;;;;;5119471;27;20079;-80
2024/01/14 04:18:23;;;;;;;8.07;0.43;;;;;;;;;;5119486;27;20051;-80
2024/01/14 04:20:49;;;;;;;15.35;0.63;;;;;;;;;;5137686;27;20043;-80
2024/01/14 04:23:15;;;;;;;8.15;1.10;;;;;;;;;;5119464;27;20047;-80
2024/01/14 04:25:41;;;;;;;8.75;0.50;;;;;;;;;;5137406;27;20112;-80
2024/01/14 04:28:07;;;;;;;8.13;0.40;;;;;;;;;;5137412;27;20075;-80
2024/01/14 04:30:33;;;;;;;6.55;0.40;;;;;;;;;;5119175;27;20058;-80
2024/01/14 04:32:59;;;;;;;7.95;0.55;;;;;;;;;;5101976;27;20045;-80
2024/01/14 04:35:26;;;;;;;9.55;0.30;;;;;;;;;;5119367;27;20046;-80
2024/01/14 04:37:52;;;;;;;7.00;0.28;;;;;;;;;;5137171;27;20089;-80
2024/01/14 04:40:18;;;;;;;9.50;0.40;;;;;;;;;;5137252;27;20399;-80
2024/01/14 04:42:44;;;;;;;7.20;0.30;;;;;;;;;;5102042;27;20411;-80
2024/01/14 04:45:10;;;;;;;9.02;0.30;;;;;;;;;;5118946;27;20047;-80
2024/01/14 04:47:36;;;;;;;6.57;0.30;;;;;;;;;;5118940;27;20051;-80
2024/01/14 04:50:02;;;;;;;5.30;0.30;;;;;;;;;;5118851;27;20475;-80
2024/01/14 04:52:29;;;;;;;7.05;0.50;;;;;;;;;;5137177;27;20051;-80
2024/01/14 04:54:55;;;;;;;8.60;0.40;;;;;;;;;;5136326;27;20073;-80
2024/01/14 04:57:22;;;;;;;7.05;0.50;;;;;;;;;;5118687;27;20035;-80
2024/01/14 04:59:48;;;;;;;6.55;0.47;;;;;;;;;;5118522;27;20077;-80
2024/01/14 05:02:14;;;;;;;4.43;0.30;;;;;;;;;;5136678;27;20077;-80
2024/01/14 05:04:40;;;;;;;7.78;0.30;;;;;;;;;;5136686;27;20100;-80
2024/01/14 05:07:06;;;;;;;6.85;0.50;;;;;;;;;;5117949;27;20054;-80
2024/01/14 05:09:32;;;;;;;8.30;0.30;;;;;;;;;;5135855;27;20133;-80
2024/01/14 05:11:58;;;;;;;8.15;0.52;;;;;;;;;;5136484;27;20090;-80
2024/01/14 05:14:24;;;;;;;6.50;0.47;;;;;;;;;;5118273;27;20047;-80
2024/01/14 05:16:51;;;;;;;9.93;0.75;;;;;;;;;;5136506;27;20104;-80
2024/01/14 05:19:17;;;;;;;9.45;0.50;;;;;;;;;;5118183;27;20039;-80
2024/01/14 05:21:43;;;;;;;4.47;0.40;;;;;;;;;;5136378;27;20043;-80
2024/01/14 05:24:09;;;;;;;5.68;0.47;;;;;;;;;;5101413;27;20394;-80
2024/01/14 05:26:39;;;;;;;6.03;0.38;;;;;;;;;;5118353;27;20043;-80
2024/01/14 05:29:05;;;;;;;5.05;0.20;;;;;;;;;;5136188;27;20475;-80
2024/01/14 05:31:31;;;;;;;5.88;0.22;;;;;;;;;;5136141;27;20047;-80
2024/01/14 05:33:57;;;;;;;4.80;0.40;;;;;;;;;;5135767;27;20043;-80
2024/01/14 05:36:23;;;;;;;9.00;0.50;;;;;;;;;;5117909;27;20050;-80
2024/01/14 05:38:49;;;;;;;5.35;0.45;;;;;;;;;;5117556;27;20372;-80
2024/01/14 05:41:16;;;;;;;7.28;0.47;;;;;;;;;;5136040;27;20409;-80
2024/01/14 05:43:42;;;;;;;5.93;0.40;;;;;;;;;;5135928;27;20043;-80
2024/01/14 05:46:08;;;;;;;7.03;0.30;;;;;;;;;;5117667;27;20475;-80
2024/01/14 05:48:34;;;;;;;4.15;0.20;;;;;;;;;;5117959;27;20069;-80
2024/01/14 05:51:00;;;;;;;10.05;0.30;;;;;;;;;;5135485;27;20065;-80
2024/01/14 05:53:26;;;;;;;6.00;0.43;;;;;;;;;;5117450;27;20489;-80
2024/01/14 05:55:52;;;;;;;3.58;0.22;;;;;;;;;;5100732;27;20130;-80
2024/01/14 05:58:18;;;;;;;5.20;0.50;;;;;;;;;;5135607;27;20049;-80
2024/01/14 06:00:44;;;;;;;4.35;0.25;;;;;;;;;;5117537;27;20055;-80
2024/01/14 06:03:10;;;;;;;4.10;0.40;;;;;;;;;;5117198;27;20050;-80
2024/01/14 06:05:36;;;;;;;7.82;0.85;;;;;;;;;;5099796;28;20043;-80
2024/01/14 06:08:02;;;;;;;6.47;0.35;;;;;;;;;;5116731;27;20039;-80
2024/01/14 06:10:28;;;;;;;6.45;0.60;;;;;;;;;;5117294;27;20096;-80
2024/01/14 06:12:55;;;;;;;6.20;0.25;;;;;;;;;;5100167;27;20053;-80
2024/01/14 06:15:21;;;;;;;8.75;0.50;;;;;;;;;;5117160;27;20043;-80
2024/01/14 06:17:47;;;;;;;5.28;0.30;;;;;;;;;;5117175;27;20047;-80
2024/01/14 06:20:13;;;;;;;12.20;0.77;;;;;;;;;;5116999;27;20049;-80
2024/01/14 06:22:39;;;;;;;8.90;0.70;;;;;;;;;;5117606;27;20104;-80
2024/01/14 06:25:05;;;;;;;8.80;0.60;;;;;;;;;;5135789;27;20066;-80
2024/01/14 06:27:31;;;;;;;8.18;0.60;;;;;;;;;;5117012;27;20050;-80
2024/01/14 06:29:57;;;;;;;7.38;0.57;;;;;;;;;;5117002;27;20108;-80
2024/01/14 06:32:23;;;;;;;9.60;0.60;;;;;;;;;;5100539;27;20130;-80
2024/01/14 06:34:49;;;;;;;10.82;0.50;;;;;;;;;;5116948;27;20035;-80
2024/01/14 06:37:15;;;;;;;5.70;0.40;;;;;;;;;;5116563;27;20047;-80
2024/01/14 06:39:41;;;;;;;9.10;0.68;;;;;;;;;;5099528;28;20080;-80
2024/01/14 06:42:08;;;;;;;8.98;0.50;;;;;;;;;;5100070;27;20054;-80
2024/01/14 06:44:34;;;;;;;7.43;0.40;;;;;;;;;;5116562;27;20046;-80
2024/01/14 06:47:00;;;;;;;12.23;0.75;;;;;;;;;;5135239;27;20380;-80
2024/01/14 06:49:26;;;;;;;11.88;0.93;;;;;;;;;;5116810;27;20406;-80
2024/01/14 06:51:52;;;;;;;5.47;0.40;;;;;;;;;;5134616;27;20449;-80
2024/01/14 06:54:18;;;;;;;7.38;0.40;;;;;;;;;;5117566;28;20047;-80
2024/01/14 06:56:44;;;;;;;6.43;0.50;;;;;;;;;;5135102;28;20051;-80
2024/01/14 06:59:14;;;;;;;7.63;0.50;;;;;;;;;;5099847;28;20054;-80
2024/01/14 07:01:40;;;;;;;3.80;0.30;;;;;;;;;;5116627;28;20544;-80
2024/01/14 07:04:06;;;;;;;5.00;0.20;;;;;;;;;;5116674;28;20051;-80
2024/01/14 07:06:32;;;;;;;6.88;0.82;;;;;;;;;;5134632;28;20096;-80
2024/01/14 07:08:58;;;;;;;4.13;0.22;;;;;;;;;;5134254;28;20039;-80
2024/01/14 07:11:25;;;;;;;6.53;0.40;;;;;;;;;;5116734;28;20052;-80
2024/01/14 07:13:51;;;;;;;5.45;0.32;;;;;;;;;;5116177;28;20043;-80
2024/01/14 07:16:17;;;;;;;4.65;0.30;;;;;;;;;;5134616;28;20376;-80
2024/01/14 07:18:43;;;;;;;5.70;0.30;;;;;;;;;;5102665;27;20058;-79
2024/01/14 07:21:10;;;;;;;6.88;0.30;;;;;;;;;;5120568;27;20039;-80
2024/01/14 07:23:40;;;;;;;7.60;0.50;;;;;;;;;;5120372;27;20062;-80
2024/01/14 07:26:12;;;;;;;4.25;0.30;;;;;;;;;;5120407;27;20050;-80
2024/01/14 07:28:38;;;;;;;8.60;0.30;;;;;;;;;;5120292;27;20085;-80
2024/01/14 07:31:04;;;;;;;4.22;0.30;;;;;;;;;;5120413;27;20051;-80
2024/01/14 07:33:30;;;;;;;7.38;0.82;;;;;;;;;;5120152;27;20499;-80
2024/01/14 07:35:56;;;;;;;5.05;0.45;;;;;;;;;;5119863;27;20521;-80
2024/01/14 07:38:22;;;;;;;1.35;0.10;;;;;;;;;;5137992;27;20047;-80
2024/01/14 07:40:48;;;;;;;5.60;0.28;;;;;;;;;;5120219;27;20035;-80
2024/01/14 07:43:15;;;;;;;5.38;0.47;;;;;;;;;;5120123;27;20047;-80
2024/01/14 07:45:41;;;;;;;2.30;0.30;;;;;;;;;;5138219;27;20101;-80
2024/01/14 07:48:07;;;;;;;3.83;0.20;;;;;;;;;;5120141;27;20092;-79
2024/01/14 07:50:33;;;;;;;1.50;0.15;;;;;;;;;;5119879;27;20047;-81
2024/01/14 07:53:00;;;;;;;5.85;0.40;;;;;;;;;;5071355;28;20130;-81
2024/01/14 07:55:26;;;;;;;2.13;0.20;;;;;;;;;;5099244;28;20043;-81
2024/01/14 07:57:52;;;;;;;5.95;0.47;;;;;;;;;;5099347;28;20052;-82
2024/01/14 08:00:18;;;;;;;6.00;0.55;;;;;;;;;;5082601;28;20086;-81
2024/01/14 08:02:44;;;;;;;6.80;0.30;;;;;;;;;;5099052;28;20051;-81
2024/01/14 08:05:11;;;;;;;5.10;0.50;;;;;;;;;;5117232;28;20492;-83
2024/01/14 08:07:37;;;;;;;4.10;0.40;;;;;;;;;;5081746;28;20522;-83
2024/01/14 08:10:03;;;;;;;4.07;0.38;;;;;;;;;;5082320;28;20065;-83
2024/01/14 08:12:29;;;;;;;4.38;1.05;;;;;;;;;;5099044;28;20399;-84
2024/01/14 08:14:56;;;;;;;6.60;0.60;;;;;;;;;;5082037;28;20050;-83
2024/01/14 08:17:22;;;;;;;6.13;0.70;;;;;;;;;;5098933;28;20134;-81
2024/01/14 08:19:48;;;;;;;4.95;0.80;;;;;;;;;;5099072;28;20458;-84
2024/01/14 08:22:18;;;;;;;4.25;0.82;;;;;;;;;;5065906;28;20047;-81
2024/01/14 08:24:44;;;;;;;7.13;1.02;;;;;;;;;;5116903;28;20138;-82
2024/01/14 08:27:10;;;;;;;8.05;1.52;;;;;;;;;;5099210;28;20043;-80
2024/01/14 08:29:36;;;;;;;11.10;1.65;;;;;;;;;;5115686;28;20048;-82
2024/01/14 08:32:02;;;;;;;7.05;1.70;;;;;;;;;;5081913;28;20377;-81
2024/01/14 08:34:28;;;;;;;9.43;2.17;;;;;;;;;;5099402;28;20133;-81
2024/01/14 08:36:55;;;;;;;8.82;1.50;;;;;;;;;;5081924;28;20055;-82
2024/01/14 08:39:21;;;;;;;7.95;1.92;;;;;;;;;;5098211;28;20395;-83
2024/01/14 08:41:47;;;;;;;5.63;2.38;;;;;;;;;;5098748;28;20134;-84
2024/01/14 08:44:14;;;;;;;7.82;2.10;;;;;;;;;;5098664;28;20047;-83
2024/01/14 08:46:47;;;;;;;8.27;2.65;;;;;;;;;;5082214;28;20047;-82
2024/01/14 08:49:13;;;;;;;10.18;3.05;;;;;;;;;;5098508;28;20047;-80
2024/01/14 08:51:40;;;;;;;10.68;3.30;;;;;;;;;;5098095;28;20056;-81
2024/01/14 08:54:06;;;;;;;11.55;3.67;;;;;;;;;;5081489;28;20063;-81
2024/01/14 08:56:32;;;;;;;9.02;3.75;;;;;;;;;;5116343;28;20061;-80
2024/01/14 08:58:58;;;;;;;10.40;4.72;;;;;;;;;;5098309;28;20122;-80
2024/01/14 09:01:25;;;;;;;9.43;4.55;;;;;;;;;;5098233;28;20047;-80
2024/01/14 09:03:52;;;;;;;12.85;5.47;;;;;;;;;;5098005;28;20469;-80
2024/01/14 09:06:18;;;;;;;8.35;4.35;;;;;;;;;;5116102;28;20126;-80
2024/01/14 09:08:44;;;;;;;14.50;5.35;;;;;;;;;;5097765;28;20043;-80
2024/01/14 09:11:10;;;;;;;9.40;4.63;;;;;;;;;;5098020;28;20044;-80
2024/01/14 09:13:36;;;;;;;9.88;4.68;;;;;;;;;;5080894;28;20039;-80
2024/01/14 09:16:03;;;;;;;11.45;5.93;;;;;;;;;;5115828;28;20073;-80
2024/01/14 09:18:29;;;;;;;11.07;5.57;;;;;;;;;;5130422;27;20035;-80
2024/01/14 09:20:55;;;;;;;14.32;5.53;;;;;;;;;;5117130;27;20086;-80
2024/01/14 09:23:21;;;;;;;9.50;5.47;;;;;;;;;;5134951;27;20091;-80
2024/01/14 09:25:47;;;;;;;11.18;5.22;;;;;;;;;;5117345;27;20043;-80
2024/01/14 09:28:13;;;;;;;10.68;4.95;;;;;;;;;;5116443;27;20051;-80
2024/01/14 09:30:39;;;;;;;8.02;4.03;;;;;;;;;;5116621;27;20039;-80
2024/01/14 09:33:05;;;;;;;13.00;5.45;;;;;;;;;;5117032;27;20118;-80
2024/01/14 09:35:31;;;;;;;15.07;5.47;;;;;;;;;;5135134;27;20043;-80
2024/01/14 09:37:57;;;;;;;9.32;4.65;;;;;;;;;;5116203;27;20043;-80
2024/01/14 09:40:24;;;;;;;9.75;4.82;;;;;;;;;;5116490;27;20054;-80
2024/01/14 09:42:51;;;;;;;9.38;4.85;;;;;;;;;;5116602;27;20058;-80
2024/01/14 09:45:17;;;;;;;11.70;6.63;;;;;;;;;;5117629;27;20121;-79
2024/01/14 09:47:45;;;;;;;14.90;7.38;;;;;;;;;;5117850;27;20051;-81
2024/01/14 09:50:11;;;;;;;11.93;8.23;;;;;;;;;;5135998;27;20126;-80
2024/01/14 09:52:40;;;;;;;13.60;7.53;;;;;;;;;;5136041;27;20459;-80
2024/01/14 09:55:06;;;;;;;13.02;7.20;;;;;;;;;;5117556;27;20039;-80
2024/01/14 09:57:34;;;;;;;15.95;8.88;;;;;;;;;;5117152;27;20043;-80
2024/01/14 10:00:04;;;;;;;14.38;8.95;;;;;;;;;;5116398;27;20035;-80
2024/01/14 10:02:33;;;;;;;11.65;7.85;;;;;;;;;;5117652;27;20063;-80
2024/01/14 10:04:59;;;;;;;16.42;9.68;;;;;;;;;;5117186;27;20051;-80
2024/01/14 10:07:26;;;;;;;14.85;9.10;;;;;;;;;;5117412;27;20130;-80
2024/01/14 10:09:52;;;;;;;18.08;10.60;;;;;;;;;;5116985;27;20096;-80
2024/01/14 10:12:18;;;;;;;19.30;11.98;;;;;;;;;;5117242;27;20047;-80
2024/01/14 10:14:45;;;;;;;23.08;12.23;;;;;;;;;;5117505;27;20039;-80
2024/01/14 10:17:14;;;;;;;19.85;12.65;;;;;;;;;;5116900;27;20406;-80
2024/01/14 10:19:40;;;;;;;19.92;13.48;;;;;;;;;;5117482;27;20359;-80
2024/01/14 10:22:07;;;;;;;23.55;14.95;;;;;;;;;;5117155;27;20043;-80
2024/01/14 10:24:34;;;;;;;25.88;15.48;;;;;;;;;;5117190;27;20051;-80
2024/01/14 10:27:00;;;;;;;22.98;15.23;;;;;;;;;;5135148;27;20047;-80
2024/01/14 10:29:26;;;;;;;28.23;15.93;;;;;;;;;;5116655;27;20565;-80
2024/01/14 10:31:52;;;;;;;29.63;17.48;;;;;;;;;;5116756;27;20051;-80
2024/01/14 10:34:18;;;;;;;32.40;18.45;;;;;;;;;;5116947;27;20047;-80
2024/01/14 10:36:45;;;;;;;31.83;18.90;;;;;;;;;;5116691;27;20055;-80
2024/01/14 10:39:12;;;;;;;28.55;18.58;;;;;;;;;;5115882;27;20043;-79
2024/01/14 10:41:38;;;;;;;29.85;19.35;;;;;;;;;;5117402;27;20047;-79
2024/01/14 10:44:04;;;;;;;29.80;19.70;;;;;;;;;;5116606;27;20435;-79
2024/01/14 10:46:31;;;;;;;31.70;19.80;;;;;;;;;;5116362;27;20043;-79
2024/01/14 10:49:07;;;;;;;30.35;19.00;;;;;;;;;;5116848;28;20051;-79
2024/01/14 10:51:37;;;;;;;29.08;19.83;;;;;;;;;;5116456;27;20513;-79
2024/01/14 10:54:06;;;;;;;30.10;18.77;;;;;;;;;;5134578;27;20130;-79
2024/01/14 10:56:36;;;;;;;26.38;17.95;;;;;;;;;;5116515;28;20053;-79
2024/01/14 10:59:05;;;;;;;28.98;19.17;;;;;;;;;;5134706;28;20100;-79
2024/01/14 11:01:32;;;;;;;28.23;18.23;;;;;;;;;;5116586;28;20146;-79
2024/01/14 11:04:00;;;;;;;25.15;16.80;;;;;;;;;;5099553;28;20439;-79
2024/01/14 11:06:26;;;;;;;24.05;17.33;;;;;;;;;;5134511;28;20100;-79
2024/01/14 11:08:52;;;;;;;27.27;17.52;;;;;;;;;;5115923;28;20043;-79
2024/01/14 11:11:21;;;;;;;27.23;17.25;;;;;;;;;;5116519;28;20074;-79
2024/01/14 11:13:53;;;;;;;26.70;16.35;;;;;;;;;;5134596;28;20527;-79
2024/01/14 11:16:20;;;;;;;24.00;17.08;;;;;;;;;;5116369;28;20181;-79
2024/01/14 11:18:49;;;;;;;26.48;16.70;;;;;;;;;;5116351;28;20107;-79
2024/01/14 11:21:38;;;;;;;23.85;16.00;;;;;;;;;;5116092;28;20483;-79
2024/01/14 11:24:05;;;;;;;23.55;14.20;;;;;;;;;;5116745;28;20058;-79
2024/01/14 11:26:32;;;;;;;23.50;15.27;;;;;;;;;;5116155;28;20047;-79
2024/01/14 11:29:03;;;;;;;23.65;15.57;;;;;;;;;;5116870;28;20061;-79
2024/01/14 11:31:48;;;;;;;23.00;15.88;;;;;;;;;;5116014;28;20502;-79
2024/01/14 11:34:34;;;;;;;27.63;15.43;;;;;;;;;;5134290;28;20043;-79
2024/01/14 11:37:00;;;;;;;24.98;15.07;;;;;;;;;;5116069;28;20047;-79
2024/01/14 11:39:26;;;;;;;23.60;15.05;;;;;;;;;;5115499;28;20070;-80
2024/01/14 11:41:53;;;;;;;22.45;14.00;;;;;;;;;;5134252;28;20043;-79
2024/01/14 11:44:30;;;;;;;27.75;14.65;;;;;;;;;;5134263;28;20043;-79
2024/01/14 11:46:56;;;;;;;20.50;14.05;;;;;;;;;;5099304;28;20108;-79
2024/01/14 11:49:23;;;;;;;20.48;14.93;;;;;;;;;;5116799;28;20039;-79
2024/01/14 11:51:57;;;;;;;22.67;15.18;;;;;;;;;;5115708;28;20417;-79
2024/01/14 11:54:24;;;;;;;24.42;16.00;;;;;;;;;;5134526;28;20058;-81
2024/01/14 11:56:50;;;;;;;25.15;16.70;;;;;;;;;;5116142;28;20112;-79
2024/01/14 11:59:17;;;;;;;27.85;16.17;;;;;;;;;;5121427;28;20047;-79
2024/01/14 12:01:43;;;;;;;26.88;17.02;;;;;;;;;;5115821;28;20089;-78
2024/01/14 12:04:10;;;;;;;27.15;16.90;;;;;;;;;;5116088;27;20057;-79
2024/01/14 12:06:47;;;;;;;24.65;15.77;;;;;;;;;;5119766;27;20100;-79
2024/01/14 12:09:14;;;;;;;25.92;17.27;;;;;;;;;;5137502;27;20479;-79
2024/01/14 12:11:41;;;;;;;26.15;17.13;;;;;;;;;;5137922;27;20039;-79
2024/01/14 12:14:07;;;;;;;25.92;17.77;;;;;;;;;;5137768;27;20137;-79
2024/01/14 12:16:34;;;;;;;30.73;19.25;;;;;;;;;;5119905;27;20103;-79
2024/01/14 12:19:00;;;;;;;32.17;18.33;;;;;;;;;;5119421;27;20099;-80
2024/01/14 12:21:28;;;;;;;27.90;19.00;;;;;;;;;;5120089;27;20050;-79
2024/01/14 12:23:54;;;;;;;31.23;19.67;;;;;;;;;;5120142;27;20471;-79
2024/01/14 12:26:20;;;;;;;29.52;18.65;;;;;;;;;;5137419;27;20047;-79
2024/01/14 12:28:47;;;;;;;30.08;19.45;;;;;;;;;;5085098;27;20403;-79
2024/01/14 12:31:21;;;;;;;32.30;19.23;;;;;;;;;;5137326;27;20045;-79
2024/01/14 12:33:47;;;;;;;30.17;20.00;;;;;;;;;;5137449;27;20054;-80
2024/01/14 12:36:14;;;;;;;33.83;20.13;;;;;;;;;;5119199;27;20051;-79
2024/01/14 12:38:41;;;;;;;30.10;20.55;;;;;;;;;;5119114;27;20048;-79
2024/01/14 12:41:08;;;;;;;29.42;19.65;;;;;;;;;;5118643;27;20479;-79
2024/01/14 12:43:34;;;;;;;32.17;21.85;;;;;;;;;;5119079;27;20111;-79
2024/01/14 12:46:02;;;;;;;35.67;20.17;;;;;;;;;;5119306;27;20111;-79
2024/01/14 12:48:28;;;;;;;33.63;20.33;;;;;;;;;;5118136;27;20042;-78
2024/01/14 12:50:58;;;;;;;29.05;19.42;;;;;;;;;;5118993;27;20043;-78
2024/01/14 12:53:25;;;;;;;30.35;20.23;;;;;;;;;;5119302;27;20054;-79
2024/01/14 12:55:52;;;;;;;30.17;21.20;;;;;;;;;;5137117;27;20043;-79
2024/01/14 12:58:18;;;;;;;34.35;20.27;;;;;;;;;;5117834;27;20051;-79
2024/01/14 13:00:44;;;;;;;30.23;18.77;;;;;;;;;;5118131;27;20040;-79
2024/01/14 13:03:10;;;;;;;34.03;20.92;;;;;;;;;;5118486;27;20521;-79
2024/01/14 13:05:36;;;;;;;37.17;21.08;;;;;;;;;;5137139;27;20043;-79
2024/01/14 13:08:05;;;;;;;30.90;19.45;;;;;;;;;;5118728;27;20043;-79
2024/01/14 13:10:31;;;;;;;32.10;19.08;;;;;;;;;;5136615;27;20043;-78
2024/01/14 13:12:58;;;;;;;29.40;18.33;;;;;;;;;;5108858;27;20038;-78
2024/01/14 13:15:24;;;;;;;27.30;17.75;;;;;;;;;;5138657;27;20050;-79
2024/01/14 13:17:51;;;;;;;30.33;18.30;;;;;;;;;;5154262;27;20120;-79
2024/01/14 13:20:17;;;;;;;25.42;15.73;;;;;;;;;;5118161;27;20047;-78
2024/01/14 13:22:43;;;;;;;25.15;16.80;;;;;;;;;;5118315;27;20059;-78
2024/01/14 13:25:09;;;;;;;23.60;14.60;;;;;;;;;;5136323;27;20047;-79
2024/01/14 13:27:36;;;;;;;20.42;13.32;;;;;;;;;;5117996;27;20043;-78
2024/01/14 13:30:02;;;;;;;15.27;9.77;;;;;;;;;;5112666;27;20083;-79
2024/01/14 13:32:30;;;;;;;18.95;10.65;;;;;;;;;;5134890;27;20096;-79
2024/01/14 13:34:56;;;;;;;14.52;9.35;;;;;;;;;;5117659;27;20452;-79
2024/01/14 13:37:22;;;;;;;16.23;8.52;;;;;;;;;;5151852;27;20079;-79
2024/01/14 13:39:50;;;;;;;12.00;7.18;;;;;;;;;;5134526;27;20483;-78
2024/01/14 13:42:16;;;;;;;12.15;6.97;;;;;;;;;;5117014;27;20045;-78
2024/01/14 13:44:42;;;;;;;12.27;7.40;;;;;;;;;;5116757;27;20068;-78
2024/01/14 13:47:08;;;;;;;12.13;7.82;;;;;;;;;;5116938;27;20051;-78
2024/01/14 13:49:35;;;;;;;14.30;7.03;;;;;;;;;;5133829;27;20043;-78
2024/01/14 13:52:01;;;;;;;9.60;6.28;;;;;;;;;;5134211;27;20051;-78
2024/01/14 13:54:27;;;;;;;11.50;6.20;;;;;;;;;;5116523;27;20093;-79
2024/01/14 13:56:54;;;;;;;10.15;5.93;;;;;;;;;;5144408;27;20088;-79
2024/01/14 13:59:22;;;;;;;8.77;5.32;;;;;;;;;;5140620;27;20062;-79
2024/01/14 14:01:48;;;;;;;7.10;3.65;;;;;;;;;;5144998;27;20043;-79
2024/01/14 14:04:14;;;;;;;5.85;3.53;;;;;;;;;;5133184;27;20039;-79
2024/01/14 14:06:41;;;;;;;6.07;3.38;;;;;;;;;;5125608;27;20463;-79
2024/01/14 14:09:08;;;;;;;7.13;3.15;;;;;;;;;;5106988;27;20075;-80
2024/01/14 14:11:34;;;;;;;3.28;1.80;;;;;;;;;;5135674;27;20423;-80
2024/01/14 14:14:00;;;;;;;5.35;2.97;;;;;;;;;;5132686;27;20035;-80
2024/01/14 14:16:27;;;;;;;4.70;1.63;;;;;;;;;;5116619;27;20374;-80
2024/01/14 14:18:53;;;;;;;2.03;1.45;;;;;;;;;;5115933;27;20550;-80
2024/01/14 14:21:19;;;;;;;4.72;1.08;;;;;;;;;;5116148;27;20386;-80
2024/01/14 14:23:45;;;;;;;4.13;1.20;;;;;;;;;;5116683;27;20071;-80
2024/01/14 14:26:11;;;;;;;3.80;0.82;;;;;;;;;;5117070;27;20107;-80
2024/01/14 14:28:39;;;;;;;3.38;0.80;;;;;;;;;;5116536;27;20046;-80